CheckWX is a tool to help pilots better visualize weather data.  It is not intended as a substitute for an official pre-flight weather briefing.

07:17:01 UTC

ESNN TAF
Sundsvall-Härnösand Airport
Sundsvall/ Härnösand, Sweden
TAF ESNN 190530Z 1906/1915 26009KT CAVOK

Jun-19@
06:00 UTC

Jun-19 @ 06:00 UTC

Jun-19@
15:00 UTC

Jun-19 @ 15:00 UTC

TAF ESNN 190530Z 1906/1915 26009KT CAVOK
Wind
  • 260° at 9 KTS
Conditions
No significant weather
Cloud Levels
  • No significant clouds